sensor_id;sensor_type;location;lat;lon;timestamp;P1;durP1;ratioP1;P2;durP2;ratioP2
22543;SDS011;11438;52.044;8.716;2022-07-06T00:02:22;0.73;;;0.50;;
22543;SDS011;11438;52.044;8.716;2022-07-06T00:04:48;1.25;;;0.52;;
22543;SDS011;11438;52.044;8.716;2022-07-06T00:07:13;2.38;;;0.70;;
22543;SDS011;11438;52.044;8.716;2022-07-06T00:09:39;1.63;;;0.65;;
22543;SDS011;11438;52.044;8.716;2022-07-06T00:12:06;1.88;;;0.60;;
22543;SDS011;11438;52.044;8.716;2022-07-06T00:14:32;2.65;;;0.80;;
22543;SDS011;11438;52.044;8.716;2022-07-06T00:16:57;1.52;;;0.50;;
22543;SDS011;11438;52.044;8.716;2022-07-06T00:19:23;2.95;;;0.68;;
22543;SDS011;11438;52.044;8.716;2022-07-06T00:21:48;2.67;;;0.90;;
22543;SDS011;11438;52.044;8.716;2022-07-06T00:24:14;5.20;;;0.90;;
22543;SDS011;11438;52.044;8.716;2022-07-06T00:26:41;2.17;;;0.82;;
22543;SDS011;11438;52.044;8.716;2022-07-06T00:29:06;2.47;;;0.70;;
22543;SDS011;11438;52.044;8.716;2022-07-06T00:31:32;1.23;;;0.60;;
22543;SDS011;11438;52.044;8.716;2022-07-06T00:33:57;1.38;;;0.60;;
22543;SDS011;11438;52.044;8.716;2022-07-06T00:36:23;1.38;;;0.60;;
22543;SDS011;11438;52.044;8.716;2022-07-06T00:38:48;3.83;;;0.70;;
22543;SDS011;11438;52.044;8.716;2022-07-06T00:41:14;2.50;;;0.60;;
22543;SDS011;11438;52.044;8.716;2022-07-06T00:43:49;0.90;;;0.50;;
22543;SDS011;11438;52.044;8.716;2022-07-06T00:46:17;1.27;;;0.43;;
22543;SDS011;11438;52.044;8.716;2022-07-06T00:48:43;1.48;;;0.82;;
22543;SDS011;11438;52.044;8.716;2022-07-06T00:51:08;1.88;;;0.50;;
22543;SDS011;11438;52.044;8.716;2022-07-06T00:53:34;0.90;;;0.63;;
22543;SDS011;11438;52.044;8.716;2022-07-06T00:56:00;2.15;;;0.70;;
22543;SDS011;11438;52.044;8.716;2022-07-06T00:58:26;1.65;;;0.65;;
22543;SDS011;11438;52.044;8.716;2022-07-06T01:00:52;2.47;;;0.80;;
22543;SDS011;11438;52.044;8.716;2022-07-06T01:03:17;1.00;;;0.50;;
22543;SDS011;11438;52.044;8.716;2022-07-06T01:05:43;2.00;;;0.60;;
22543;SDS011;11438;52.044;8.716;2022-07-06T01:08:09;2.03;;;0.60;;
22543;SDS011;11438;52.044;8.716;2022-07-06T01:10:34;1.30;;;0.52;;
22543;SDS011;11438;52.044;8.716;2022-07-06T01:13:00;0.90;;;0.50;;
22543;SDS011;11438;52.044;8.716;2022-07-06T01:15:26;1.40;;;0.60;;
22543;SDS011;11438;52.044;8.716;2022-07-06T01:17:52;2.63;;;0.60;;
22543;SDS011;11438;52.044;8.716;2022-07-06T01:20:21;1.55;;;0.60;;
22543;SDS011;11438;52.044;8.716;2022-07-06T01:22:49;1.85;;;0.60;;
22543;SDS011;11438;52.044;8.716;2022-07-06T01:25:15;2.10;;;0.43;;
22543;SDS011;11438;52.044;8.716;2022-07-06T01:27:42;2.33;;;0.90;;
22543;SDS011;11438;52.044;8.716;2022-07-06T01:30:09;1.80;;;0.70;;
22543;SDS011;11438;52.044;8.716;2022-07-06T01:32:36;2.35;;;0.65;;
22543;SDS011;11438;52.044;8.716;2022-07-06T01:35:02;1.90;;;0.80;;
22543;SDS011;11438;52.044;8.716;2022-07-06T01:37:29;1.50;;;0.57;;
22543;SDS011;11438;52.044;8.716;2022-07-06T01:39:58;1.13;;;0.60;;
22543;SDS011;11438;52.044;8.716;2022-07-06T01:42:25;1.25;;;0.70;;
22543;SDS011;11438;52.044;8.716;2022-07-06T01:44:50;2.35;;;0.60;;
22543;SDS011;11438;52.044;8.716;2022-07-06T01:47:16;0.90;;;0.57;;
22543;SDS011;11438;52.044;8.716;2022-07-06T01:49:41;1.63;;;0.70;;
22543;SDS011;11438;52.044;8.716;2022-07-06T01:52:07;1.27;;;0.60;;
22543;SDS011;11438;52.044;8.716;2022-07-06T01:54:33;2.35;;;0.73;;
22543;SDS011;11438;52.044;8.716;2022-07-06T01:56:58;0.88;;;0.52;;
22543;SDS011;11438;52.044;8.716;2022-07-06T01:59:24;0.95;;;0.65;;
22543;SDS011;11438;52.044;8.716;2022-07-06T02:01:49;0.80;;;0.52;;
22543;SDS011;11438;52.044;8.716;2022-07-06T02:04:15;2.20;;;0.60;;
22543;SDS011;11438;52.044;8.716;2022-07-06T02:06:40;2.53;;;0.60;;
22543;SDS011;11438;52.044;8.716;2022-07-06T02:09:06;1.80;;;0.60;;
22543;SDS011;11438;52.044;8.716;2022-07-06T02:11:31;2.15;;;0.80;;
22543;SDS011;11438;52.044;8.716;2022-07-06T02:13:57;1.73;;;0.88;;
22543;SDS011;11438;52.044;8.716;2022-07-06T02:16:22;1.77;;;0.65;;
22543;SDS011;11438;52.044;8.716;2022-07-06T02:18:48;2.00;;;0.73;;
22543;SDS011;11438;52.044;8.716;2022-07-06T02:21:13;1.02;;;0.77;;
22543;SDS011;11438;52.044;8.716;2022-07-06T02:23:39;2.88;;;1.10;;
22543;SDS011;11438;52.044;8.716;2022-07-06T02:26:04;2.17;;;0.90;;
22543;SDS011;11438;52.044;8.716;2022-07-06T02:28:30;2.88;;;0.70;;
22543;SDS011;11438;52.044;8.716;2022-07-06T02:30:56;4.38;;;1.15;;
22543;SDS011;11438;52.044;8.716;2022-07-06T02:33:21;2.17;;;0.80;;
22543;SDS011;11438;52.044;8.716;2022-07-06T02:35:47;5.75;;;1.10;;
22543;SDS011;11438;52.044;8.716;2022-07-06T02:38:12;2.53;;;0.90;;
22543;SDS011;11438;52.044;8.716;2022-07-06T02:40:37;2.05;;;0.80;;
22543;SDS011;11438;52.044;8.716;2022-07-06T02:43:03;2.25;;;0.93;;
22543;SDS011;11438;52.044;8.716;2022-07-06T02:45:30;1.83;;;0.80;;
22543;SDS011;11438;52.044;8.716;2022-07-06T02:47:56;3.45;;;0.80;;
22543;SDS011;11438;52.044;8.716;2022-07-06T02:50:22;1.17;;;0.70;;
22543;SDS011;11438;52.044;8.716;2022-07-06T02:52:48;2.83;;;0.88;;
22543;SDS011;11438;52.044;8.716;2022-07-06T02:55:14;1.67;;;0.70;;
22543;SDS011;11438;52.044;8.716;2022-07-06T02:57:39;1.52;;;0.68;;
22543;SDS011;11438;52.044;8.716;2022-07-06T03:00:05;2.25;;;0.90;;
22543;SDS011;11438;52.044;8.716;2022-07-06T03:02:31;4.10;;;0.93;;
22543;SDS011;11438;52.044;8.716;2022-07-06T03:04:57;2.60;;;0.90;;
22543;SDS011;11438;52.044;8.716;2022-07-06T03:07:22;1.92;;;0.88;;
22543;SDS011;11438;52.044;8.716;2022-07-06T03:09:48;1.88;;;0.90;;
22543;SDS011;11438;52.044;8.716;2022-07-06T03:12:13;5.68;;;0.88;;
22543;SDS011;11438;52.044;8.716;2022-07-06T03:14:39;1.83;;;0.98;;
22543;SDS011;11438;52.044;8.716;2022-07-06T03:17:04;1.98;;;1.02;;
22543;SDS011;11438;52.044;8.716;2022-07-06T03:19:30;1.15;;;0.80;;
22543;SDS011;11438;52.044;8.716;2022-07-06T03:21:55;1.67;;;0.80;;
22543;SDS011;11438;52.044;8.716;2022-07-06T03:24:21;3.67;;;0.77;;
22543;SDS011;11438;52.044;8.716;2022-07-06T03:26:46;1.05;;;0.75;;
22543;SDS011;11438;52.044;8.716;2022-07-06T03:29:12;2.40;;;1.02;;
22543;SDS011;11438;52.044;8.716;2022-07-06T03:31:37;1.33;;;0.63;;
22543;SDS011;11438;52.044;8.716;2022-07-06T03:34:03;2.58;;;0.85;;
22543;SDS011;11438;52.044;8.716;2022-07-06T03:36:28;2.35;;;0.90;;
22543;SDS011;11438;52.044;8.716;2022-07-06T03:38:54;2.08;;;0.85;;
22543;SDS011;11438;52.044;8.716;2022-07-06T03:41:19;1.35;;;0.80;;
22543;SDS011;11438;52.044;8.716;2022-07-06T03:43:45;1.85;;;0.70;;
22543;SDS011;11438;52.044;8.716;2022-07-06T03:46:10;2.58;;;0.88;;
22543;SDS011;11438;52.044;8.716;2022-07-06T03:48:36;2.53;;;0.90;;
22543;SDS011;11438;52.044;8.716;2022-07-06T03:51:01;3.20;;;0.77;;
22543;SDS011;11438;52.044;8.716;2022-07-06T03:53:27;2.40;;;0.80;;
22543;SDS011;11438;52.044;8.716;2022-07-06T03:55:52;1.00;;;0.70;;
22543;SDS011;11438;52.044;8.716;2022-07-06T03:58:36;3.28;;;0.80;;
22543;SDS011;11438;52.044;8.716;2022-07-06T04:01:02;2.63;;;0.80;;
22543;SDS011;11438;52.044;8.716;2022-07-06T04:03:27;2.67;;;0.80;;
22543;SDS011;11438;52.044;8.716;2022-07-06T04:05:53;2.90;;;0.70;;
22543;SDS011;11438;52.044;8.716;2022-07-06T04:08:18;2.05;;;0.70;;
22543;SDS011;11438;52.044;8.716;2022-07-06T04:10:44;3.15;;;1.10;;
22543;SDS011;11438;52.044;8.716;2022-07-06T04:13:10;2.95;;;1.00;;
22543;SDS011;11438;52.044;8.716;2022-07-06T04:15:36;2.50;;;0.70;;
22543;SDS011;11438;52.044;8.716;2022-07-06T04:18:01;4.82;;;1.02;;
22543;SDS011;11438;52.044;8.716;2022-07-06T04:20:27;1.40;;;0.70;;
22543;SDS011;11438;52.044;8.716;2022-07-06T04:22:53;3.17;;;0.90;;
22543;SDS011;11438;52.044;8.716;2022-07-06T04:25:18;2.65;;;0.80;;
22543;SDS011;11438;52.044;8.716;2022-07-06T04:27:44;3.17;;;0.73;;
22543;SDS011;11438;52.044;8.716;2022-07-06T04:30:10;1.27;;;0.70;;
22543;SDS011;11438;52.044;8.716;2022-07-06T04:32:36;4.68;;;0.80;;
22543;SDS011;11438;52.044;8.716;2022-07-06T04:35:02;1.33;;;0.52;;
22543;SDS011;11438;52.044;8.716;2022-07-06T04:37:29;2.85;;;1.00;;
22543;SDS011;11438;52.044;8.716;2022-07-06T04:39:54;3.13;;;0.88;;
22543;SDS011;11438;52.044;8.716;2022-07-06T04:42:20;3.10;;;0.90;;
22543;SDS011;11438;52.044;8.716;2022-07-06T04:44:45;3.05;;;0.70;;
22543;SDS011;11438;52.044;8.716;2022-07-06T04:47:11;1.70;;;0.65;;
22543;SDS011;11438;52.044;8.716;2022-07-06T04:49:37;2.33;;;0.80;;
22543;SDS011;11438;52.044;8.716;2022-07-06T04:52:03;3.03;;;1.10;;
22543;SDS011;11438;52.044;8.716;2022-07-06T04:54:29;2.92;;;0.70;;
22543;SDS011;11438;52.044;8.716;2022-07-06T04:56:55;3.00;;;0.90;;
22543;SDS011;11438;52.044;8.716;2022-07-06T04:59:20;2.40;;;0.82;;
22543;SDS011;11438;52.044;8.716;2022-07-06T05:01:46;2.95;;;1.05;;
22543;SDS011;11438;52.044;8.716;2022-07-06T05:04:11;2.58;;;0.75;;
22543;SDS011;11438;52.044;8.716;2022-07-06T05:06:37;2.90;;;0.63;;
22543;SDS011;11438;52.044;8.716;2022-07-06T05:09:02;1.35;;;0.52;;
22543;SDS011;11438;52.044;8.716;2022-07-06T05:11:28;2.50;;;0.80;;
22543;SDS011;11438;52.044;8.716;2022-07-06T05:13:53;1.35;;;0.80;;
22543;SDS011;11438;52.044;8.716;2022-07-06T05:16:19;4.28;;;0.80;;
22543;SDS011;11438;52.044;8.716;2022-07-06T05:18:45;1.30;;;0.70;;
22543;SDS011;11438;52.044;8.716;2022-07-06T05:21:11;1.30;;;0.65;;
22543;SDS011;11438;52.044;8.716;2022-07-06T05:23:37;3.38;;;0.60;;
22543;SDS011;11438;52.044;8.716;2022-07-06T05:26:02;1.75;;;0.60;;
22543;SDS011;11438;52.044;8.716;2022-07-06T05:28:28;4.65;;;0.90;;
22543;SDS011;11438;52.044;8.716;2022-07-06T05:30:53;2.08;;;0.60;;
22543;SDS011;11438;52.044;8.716;2022-07-06T05:33:19;4.30;;;0.75;;
22543;SDS011;11438;52.044;8.716;2022-07-06T05:35:44;3.95;;;1.00;;
22543;SDS011;11438;52.044;8.716;2022-07-06T05:38:10;2.55;;;0.60;;
22543;SDS011;11438;52.044;8.716;2022-07-06T05:40:36;2.60;;;1.02;;
22543;SDS011;11438;52.044;8.716;2022-07-06T05:43:01;2.30;;;0.63;;
22543;SDS011;11438;52.044;8.716;2022-07-06T05:45:27;1.45;;;0.50;;
22543;SDS011;11438;52.044;8.716;2022-07-06T05:47:53;3.72;;;0.90;;
22543;SDS011;11438;52.044;8.716;2022-07-06T05:50:37;2.92;;;0.70;;
22543;SDS011;11438;52.044;8.716;2022-07-06T05:53:03;3.38;;;0.77;;
22543;SDS011;11438;52.044;8.716;2022-07-06T05:55:30;2.95;;;0.80;;
22543;SDS011;11438;52.044;8.716;2022-07-06T05:57:56;3.42;;;0.77;;
22543;SDS011;11438;52.044;8.716;2022-07-06T06:00:25;3.33;;;0.70;;
22543;SDS011;11438;52.044;8.716;2022-07-06T06:02:51;3.60;;;0.77;;
22543;SDS011;11438;52.044;8.716;2022-07-06T06:05:18;1.75;;;0.68;;
22543;SDS011;11438;52.044;8.716;2022-07-06T06:07:44;3.47;;;0.90;;
22543;SDS011;11438;52.044;8.716;2022-07-06T06:10:11;1.55;;;0.80;;
22543;SDS011;11438;52.044;8.716;2022-07-06T06:12:38;3.13;;;0.90;;
22543;SDS011;11438;52.044;8.716;2022-07-06T06:15:05;2.47;;;0.70;;
22543;SDS011;11438;52.044;8.716;2022-07-06T06:17:31;5.50;;;0.95;;
22543;SDS011;11438;52.044;8.716;2022-07-06T06:19:57;3.90;;;1.05;;
22543;SDS011;11438;52.044;8.716;2022-07-06T06:22:23;2.97;;;0.60;;
22543;SDS011;11438;52.044;8.716;2022-07-06T06:24:49;2.33;;;0.50;;
22543;SDS011;11438;52.044;8.716;2022-07-06T06:27:15;2.35;;;0.63;;
22543;SDS011;11438;52.044;8.716;2022-07-06T06:29:41;1.92;;;0.70;;
22543;SDS011;11438;52.044;8.716;2022-07-06T06:32:09;4.95;;;0.80;;
22543;SDS011;11438;52.044;8.716;2022-07-06T06:34:35;2.42;;;0.70;;
22543;SDS011;11438;52.044;8.716;2022-07-06T06:37:00;2.80;;;0.70;;
22543;SDS011;11438;52.044;8.716;2022-07-06T06:39:26;4.18;;;0.80;;
22543;SDS011;11438;52.044;8.716;2022-07-06T06:41:52;3.35;;;0.52;;
22543;SDS011;11438;52.044;8.716;2022-07-06T06:44:17;2.67;;;0.60;;
22543;SDS011;11438;52.044;8.716;2022-07-06T06:46:43;1.75;;;0.50;;
22543;SDS011;11438;52.044;8.716;2022-07-06T06:49:09;2.00;;;0.75;;
22543;SDS011;11438;52.044;8.716;2022-07-06T06:51:34;5.95;;;0.85;;
22543;SDS011;11438;52.044;8.716;2022-07-06T06:54:00;4.82;;;0.75;;
22543;SDS011;11438;52.044;8.716;2022-07-06T06:56:26;3.25;;;0.60;;
22543;SDS011;11438;52.044;8.716;2022-07-06T06:58:51;2.78;;;0.68;;
22543;SDS011;11438;52.044;8.716;2022-07-06T07:01:17;3.35;;;0.60;;
22543;SDS011;11438;52.044;8.716;2022-07-06T07:03:42;2.03;;;0.60;;
22543;SDS011;11438;52.044;8.716;2022-07-06T07:06:08;4.28;;;0.90;;
22543;SDS011;11438;52.044;8.716;2022-07-06T07:08:33;3.25;;;0.50;;
22543;SDS011;11438;52.044;8.716;2022-07-06T07:10:59;3.10;;;0.70;;
22543;SDS011;11438;52.044;8.716;2022-07-06T07:13:24;3.85;;;0.47;;
22543;SDS011;11438;52.044;8.716;2022-07-06T07:15:50;2.67;;;0.50;;
22543;SDS011;11438;52.044;8.716;2022-07-06T07:18:15;2.28;;;0.52;;
22543;SDS011;11438;52.044;8.716;2022-07-06T07:20:41;2.25;;;0.40;;
22543;SDS011;11438;52.044;8.716;2022-07-06T07:23:06;2.08;;;0.50;;
22543;SDS011;11438;52.044;8.716;2022-07-06T07:25:32;3.28;;;0.50;;
22543;SDS011;11438;52.044;8.716;2022-07-06T07:27:57;3.50;;;0.57;;
22543;SDS011;11438;52.044;8.716;2022-07-06T07:30:23;3.72;;;0.55;;
22543;SDS011;11438;52.044;8.716;2022-07-06T07:32:48;2.58;;;0.47;;
22543;SDS011;11438;52.044;8.716;2022-07-06T07:35:14;2.05;;;0.40;;
22543;SDS011;11438;52.044;8.716;2022-07-06T07:37:39;3.13;;;0.40;;
22543;SDS011;11438;52.044;8.716;2022-07-06T07:40:05;3.30;;;0.57;;
22543;SDS011;11438;52.044;8.716;2022-07-06T07:42:31;3.03;;;0.55;;
22543;SDS011;11438;52.044;8.716;2022-07-06T07:44:57;2.67;;;0.50;;
22543;SDS011;11438;52.044;8.716;2022-07-06T07:47:23;1.30;;;0.45;;
22543;SDS011;11438;52.044;8.716;2022-07-06T07:49:48;5.05;;;0.68;;
22543;SDS011;11438;52.044;8.716;2022-07-06T07:52:14;1.77;;;0.50;;
22543;SDS011;11438;52.044;8.716;2022-07-06T07:54:40;1.63;;;0.47;;
22543;SDS011;11438;52.044;8.716;2022-07-06T07:57:05;3.22;;;0.60;;
22543;SDS011;11438;52.044;8.716;2022-07-06T07:59:31;2.40;;;0.50;;
22543;SDS011;11438;52.044;8.716;2022-07-06T08:01:57;1.88;;;0.50;;
22543;SDS011;11438;52.044;8.716;2022-07-06T08:04:22;3.92;;;0.60;;
22543;SDS011;11438;52.044;8.716;2022-07-06T08:06:48;1.25;;;0.35;;
22543;SDS011;11438;52.044;8.716;2022-07-06T08:09:13;2.35;;;0.47;;
22543;SDS011;11438;52.044;8.716;2022-07-06T08:11:40;1.15;;;0.40;;
22543;SDS011;11438;52.044;8.716;2022-07-06T08:14:06;2.58;;;0.52;;
22543;SDS011;11438;52.044;8.716;2022-07-06T08:16:31;2.55;;;0.75;;
22543;SDS011;11438;52.044;8.716;2022-07-06T08:18:57;2.53;;;0.40;;
22543;SDS011;11438;52.044;8.716;2022-07-06T08:21:23;1.23;;;0.30;;
22543;SDS011;11438;52.044;8.716;2022-07-06T08:23:49;2.30;;;0.50;;
22543;SDS011;11438;52.044;8.716;2022-07-06T08:26:14;3.90;;;0.60;;
22543;SDS011;11438;52.044;8.716;2022-07-06T08:28:40;3.42;;;0.55;;
22543;SDS011;11438;52.044;8.716;2022-07-06T08:31:05;0.82;;;0.40;;
22543;SDS011;11438;52.044;8.716;2022-07-06T08:33:31;3.83;;;0.60;;
22543;SDS011;11438;52.044;8.716;2022-07-06T08:35:56;16.83;;;1.35;;
22543;SDS011;11438;52.044;8.716;2022-07-06T08:38:22;2.72;;;0.50;;
22543;SDS011;11438;52.044;8.716;2022-07-06T08:40:48;1.08;;;0.40;;
22543;SDS011;11438;52.044;8.716;2022-07-06T08:43:15;2.20;;;0.60;;
22543;SDS011;11438;52.044;8.716;2022-07-06T08:45:41;2.33;;;0.60;;
22543;SDS011;11438;52.044;8.716;2022-07-06T08:48:09;2.55;;;0.45;;
22543;SDS011;11438;52.044;8.716;2022-07-06T08:50:35;1.42;;;0.60;;
22543;SDS011;11438;52.044;8.716;2022-07-06T08:53:01;2.95;;;0.40;;
22543;SDS011;11438;52.044;8.716;2022-07-06T08:55:27;2.78;;;0.50;;
22543;SDS011;11438;52.044;8.716;2022-07-06T08:57:54;3.15;;;0.68;;
22543;SDS011;11438;52.044;8.716;2022-07-06T09:00:21;2.38;;;0.60;;
22543;SDS011;11438;52.044;8.716;2022-07-06T09:02:48;1.83;;;0.40;;
22543;SDS011;11438;52.044;8.716;2022-07-06T09:05:21;3.05;;;0.80;;
22543;SDS011;11438;52.044;8.716;2022-07-06T09:07:51;2.65;;;0.50;;
22543;SDS011;11438;52.044;8.716;2022-07-06T09:10:18;2.22;;;0.75;;
22543;SDS011;11438;52.044;8.716;2022-07-06T09:12:47;2.67;;;0.52;;
22543;SDS011;11438;52.044;8.716;2022-07-06T09:15:13;2.42;;;1.15;;
22543;SDS011;11438;52.044;8.716;2022-07-06T09:17:40;4.05;;;0.50;;
22543;SDS011;11438;52.044;8.716;2022-07-06T09:20:07;2.22;;;0.60;;
22543;SDS011;11438;52.044;8.716;2022-07-06T09:22:34;1.85;;;0.40;;
22543;SDS011;11438;52.044;8.716;2022-07-06T09:25:06;1.77;;;0.50;;
22543;SDS011;11438;52.044;8.716;2022-07-06T09:27:41;1.90;;;0.35;;
22543;SDS011;11438;52.044;8.716;2022-07-06T09:30:12;2.22;;;0.70;;
22543;SDS011;11438;52.044;8.716;2022-07-06T09:32:43;2.30;;;0.40;;
22543;SDS011;11438;52.044;8.716;2022-07-06T09:35:57;1.88;;;0.50;;
22543;SDS011;11438;52.044;8.716;2022-07-06T09:38:11;1.58;;;0.40;;
22543;SDS011;11438;52.044;8.716;2022-07-06T09:40:42;1.33;;;0.40;;
22543;SDS011;11438;52.044;8.716;2022-07-06T09:43:13;2.30;;;0.40;;
22543;SDS011;11438;52.044;8.716;2022-07-06T09:45:44;1.90;;;0.45;;
22543;SDS011;11438;52.044;8.716;2022-07-06T09:48:12;3.00;;;0.75;;
22543;SDS011;11438;52.044;8.716;2022-07-06T09:50:44;1.63;;;0.40;;
22543;SDS011;11438;52.044;8.716;2022-07-06T09:53:11;2.75;;;0.50;;
22543;SDS011;11438;52.044;8.716;2022-07-06T09:55:38;4.20;;;0.70;;
22543;SDS011;11438;52.044;8.716;2022-07-06T09:58:08;4.38;;;0.47;;
22543;SDS011;11438;52.044;8.716;2022-07-06T10:00:34;2.60;;;0.45;;
22543;SDS011;11438;52.044;8.716;2022-07-06T10:03:00;2.28;;;0.40;;
22543;SDS011;11438;52.044;8.716;2022-07-06T10:05:26;2.22;;;0.52;;
22543;SDS011;11438;52.044;8.716;2022-07-06T10:07:55;1.27;;;0.43;;
22543;SDS011;11438;52.044;8.716;2022-07-06T10:10:27;1.65;;;0.40;;
22543;SDS011;11438;52.044;8.716;2022-07-06T10:12:57;1.55;;;0.40;;
22543;SDS011;11438;52.044;8.716;2022-07-06T10:15:27;1.85;;;0.45;;
22543;SDS011;11438;52.044;8.716;2022-07-06T10:17:57;1.08;;;0.40;;
22543;SDS011;11438;52.044;8.716;2022-07-06T10:20:23;0.50;;;0.30;;
22543;SDS011;11438;52.044;8.716;2022-07-06T10:22:53;2.55;;;0.40;;
22543;SDS011;11438;52.044;8.716;2022-07-06T10:25:19;1.65;;;0.50;;
22543;SDS011;11438;52.044;8.716;2022-07-06T10:27:46;1.95;;;0.50;;
22543;SDS011;11438;52.044;8.716;2022-07-06T10:30:13;1.27;;;0.40;;
22543;SDS011;11438;52.044;8.716;2022-07-06T10:32:40;2.42;;;0.60;;
22543;SDS011;11438;52.044;8.716;2022-07-06T10:35:08;1.02;;;0.40;;
22543;SDS011;11438;52.044;8.716;2022-07-06T10:37:34;1.10;;;0.45;;
22543;SDS011;11438;52.044;8.716;2022-07-06T10:40:00;3.28;;;0.70;;
22543;SDS011;11438;52.044;8.716;2022-07-06T10:42:46;2.65;;;0.60;;
22543;SDS011;11438;52.044;8.716;2022-07-06T10:45:19;2.85;;;0.60;;
22543;SDS011;11438;52.044;8.716;2022-07-06T10:50:42;3.72;;;0.50;;
22543;SDS011;11438;52.044;8.716;2022-07-06T10:53:13;2.55;;;0.50;;
22543;SDS011;11438;52.044;8.716;2022-07-06T10:55:41;2.22;;;0.45;;
22543;SDS011;11438;52.044;8.716;2022-07-06T10:58:09;1.50;;;0.52;;
22543;SDS011;11438;52.044;8.716;2022-07-06T11:00:42;2.17;;;0.40;;
22543;SDS011;11438;52.044;8.716;2022-07-06T11:06:01;1.08;;;0.40;;
22543;SDS011;11438;52.044;8.716;2022-07-06T11:08:56;0.95;;;0.30;;
22543;SDS011;11438;52.044;8.716;2022-07-06T11:11:24;2.08;;;0.50;;
22543;SDS011;11438;52.044;8.716;2022-07-06T11:13:58;3.35;;;0.70;;
22543;SDS011;11438;52.044;8.716;2022-07-06T11:16:40;0.95;;;0.38;;
22543;SDS011;11438;52.044;8.716;2022-07-06T11:19:26;1.50;;;0.30;;
22543;SDS011;11438;52.044;8.716;2022-07-06T11:21:54;3.58;;;0.85;;
22543;SDS011;11438;52.044;8.716;2022-07-06T11:24:30;3.50;;;0.43;;
22543;SDS011;11438;52.044;8.716;2022-07-06T11:26:58;1.83;;;0.40;;
22543;SDS011;11438;52.044;8.716;2022-07-06T11:29:25;3.90;;;0.50;;
22543;SDS011;11438;52.044;8.716;2022-07-06T11:31:52;2.65;;;0.50;;
22543;SDS011;11438;52.044;8.716;2022-07-06T11:34:20;3.00;;;0.50;;
22543;SDS011;11438;52.044;8.716;2022-07-06T11:36:48;2.38;;;0.63;;
22543;SDS011;11438;52.044;8.716;2022-07-06T11:39:14;1.67;;;0.45;;
22543;SDS011;11438;52.044;8.716;2022-07-06T11:41:41;1.73;;;0.47;;
22543;SDS011;11438;52.044;8.716;2022-07-06T11:44:07;1.30;;;0.40;;
22543;SDS011;11438;52.044;8.716;2022-07-06T11:46:33;2.30;;;0.50;;
22543;SDS011;11438;52.044;8.716;2022-07-06T11:49:04;1.58;;;0.50;;
22543;SDS011;11438;52.044;8.716;2022-07-06T11:51:36;2.67;;;0.47;;
22543;SDS011;11438;52.044;8.716;2022-07-06T11:56:48;2.38;;;0.40;;
22543;SDS011;11438;52.044;8.716;2022-07-06T11:59:27;3.08;;;0.60;;
22543;SDS011;11438;52.044;8.716;2022-07-06T12:04:27;2.33;;;0.50;;
22543;SDS011;11438;52.044;8.716;2022-07-06T12:06:53;1.05;;;0.38;;
22543;SDS011;11438;52.044;8.716;2022-07-06T12:09:19;2.17;;;0.40;;
22543;SDS011;11438;52.044;8.716;2022-07-06T12:11:45;1.75;;;0.40;;
22543;SDS011;11438;52.044;8.716;2022-07-06T12:14:12;2.65;;;0.75;;
22543;SDS011;11438;52.044;8.716;2022-07-06T12:16:40;0.57;;;0.30;;
22543;SDS011;11438;52.044;8.716;2022-07-06T12:19:06;2.33;;;0.47;;
22543;SDS011;11438;52.044;8.716;2022-07-06T12:21:33;1.67;;;0.47;;
22543;SDS011;11438;52.044;8.716;2022-07-06T12:23:59;3.55;;;0.50;;
22543;SDS011;11438;52.044;8.716;2022-07-06T12:26:26;3.00;;;0.70;;
22543;SDS011;11438;52.044;8.716;2022-07-06T12:31:36;5.03;;;0.55;;
22543;SDS011;11438;52.044;8.716;2022-07-06T12:34:03;1.10;;;0.30;;
22543;SDS011;11438;52.044;8.716;2022-07-06T12:36:30;3.22;;;0.50;;
22543;SDS011;11438;52.044;8.716;2022-07-06T12:38:56;1.60;;;0.30;;
22543;SDS011;11438;52.044;8.716;2022-07-06T12:41:26;0.55;;;0.20;;
22543;SDS011;11438;52.044;8.716;2022-07-06T12:44:04;5.45;;;0.95;;
22543;SDS011;11438;52.044;8.716;2022-07-06T12:46:41;2.70;;;0.50;;
22543;SDS011;11438;52.044;8.716;2022-07-06T12:54:35;1.38;;;0.32;;
22543;SDS011;11438;52.044;8.716;2022-07-06T12:57:14;1.00;;;0.40;;
22543;SDS011;11438;52.044;8.716;2022-07-06T12:59:48;1.33;;;0.20;;
22543;SDS011;11438;52.044;8.716;2022-07-06T13:04:58;3.13;;;0.45;;
22543;SDS011;11438;52.044;8.716;2022-07-06T13:07:25;1.75;;;0.38;;
22543;SDS011;11438;52.044;8.716;2022-07-06T13:09:53;1.77;;;0.30;;
22543;SDS011;11438;52.044;8.716;2022-07-06T13:12:19;1.48;;;0.45;;
22543;SDS011;11438;52.044;8.716;2022-07-06T13:14:46;3.03;;;0.30;;
22543;SDS011;11438;52.044;8.716;2022-07-06T13:17:12;1.90;;;0.50;;
22543;SDS011;11438;52.044;8.716;2022-07-06T13:19:37;1.63;;;0.30;;
22543;SDS011;11438;52.044;8.716;2022-07-06T13:22:03;3.55;;;0.40;;
22543;SDS011;11438;52.044;8.716;2022-07-06T13:24:29;2.17;;;0.40;;
22543;SDS011;11438;52.044;8.716;2022-07-06T13:26:55;3.25;;;0.50;;
22543;SDS011;11438;52.044;8.716;2022-07-06T13:29:22;2.72;;;0.40;;
22543;SDS011;11438;52.044;8.716;2022-07-06T13:31:47;1.02;;;0.40;;
22543;SDS011;11438;52.044;8.716;2022-07-06T13:34:13;1.23;;;0.38;;
22543;SDS011;11438;52.044;8.716;2022-07-06T13:36:39;0.75;;;0.28;;
22543;SDS011;11438;52.044;8.716;2022-07-06T13:39:04;1.17;;;0.20;;
22543;SDS011;11438;52.044;8.716;2022-07-06T13:41:31;0.65;;;0.28;;
22543;SDS011;11438;52.044;8.716;2022-07-06T13:43:56;1.40;;;0.30;;
22543;SDS011;11438;52.044;8.716;2022-07-06T13:46:23;1.55;;;0.30;;
22543;SDS011;11438;52.044;8.716;2022-07-06T13:48:49;1.25;;;0.40;;
22543;SDS011;11438;52.044;8.716;2022-07-06T13:51:14;3.10;;;0.30;;
22543;SDS011;11438;52.044;8.716;2022-07-06T13:53:40;1.70;;;0.40;;
22543;SDS011;11438;52.044;8.716;2022-07-06T13:56:05;1.88;;;0.30;;
22543;SDS011;11438;52.044;8.716;2022-07-06T13:58:32;2.42;;;0.35;;
22543;SDS011;11438;52.044;8.716;2022-07-06T14:00:58;1.42;;;0.30;;
22543;SDS011;11438;52.044;8.716;2022-07-06T14:03:24;0.90;;;0.20;;
22543;SDS011;11438;52.044;8.716;2022-07-06T14:05:54;1.25;;;0.30;;
22543;SDS011;11438;52.044;8.716;2022-07-06T14:08:24;2.72;;;0.30;;
22543;SDS011;11438;52.044;8.716;2022-07-06T14:10:50;0.55;;;0.20;;
22543;SDS011;11438;52.044;8.716;2022-07-06T14:13:16;0.85;;;0.30;;
22543;SDS011;11438;52.044;8.716;2022-07-06T14:15:42;1.70;;;0.30;;
22543;SDS011;11438;52.044;8.716;2022-07-06T14:18:08;1.73;;;0.40;;
22543;SDS011;11438;52.044;8.716;2022-07-06T14:20:33;1.75;;;0.40;;
22543;SDS011;11438;52.044;8.716;2022-07-06T14:22:59;1.73;;;0.30;;
22543;SDS011;11438;52.044;8.716;2022-07-06T14:25:24;0.98;;;0.30;;
22543;SDS011;11438;52.044;8.716;2022-07-06T14:27:50;1.13;;;0.30;;
22543;SDS011;11438;52.044;8.716;2022-07-06T14:30:15;0.90;;;0.30;;
22543;SDS011;11438;52.044;8.716;2022-07-06T14:32:41;2.10;;;0.30;;
22543;SDS011;11438;52.044;8.716;2022-07-06T14:35:08;0.47;;;0.20;;
22543;SDS011;11438;52.044;8.716;2022-07-06T14:37:35;3.17;;;0.40;;
22543;SDS011;11438;52.044;8.716;2022-07-06T14:40:00;1.23;;;0.43;;
22543;SDS011;11438;52.044;8.716;2022-07-06T14:42:25;3.00;;;0.30;;
22543;SDS011;11438;52.044;8.716;2022-07-06T14:44:51;0.43;;;0.15;;
22543;SDS011;11438;52.044;8.716;2022-07-06T14:47:16;0.43;;;0.20;;
22543;SDS011;11438;52.044;8.716;2022-07-06T14:49:42;1.20;;;0.35;;
22543;SDS011;11438;52.044;8.716;2022-07-06T14:52:07;0.70;;;0.20;;
22543;SDS011;11438;52.044;8.716;2022-07-06T14:54:34;2.25;;;0.30;;
22543;SDS011;11438;52.044;8.716;2022-07-06T14:57:01;0.50;;;0.20;;
22543;SDS011;11438;52.044;8.716;2022-07-06T14:59:29;1.20;;;0.40;;
22543;SDS011;11438;52.044;8.716;2022-07-06T15:01:55;2.00;;;0.38;;
22543;SDS011;11438;52.044;8.716;2022-07-06T15:04:20;0.85;;;0.28;;
22543;SDS011;11438;52.044;8.716;2022-07-06T15:06:46;0.77;;;0.25;;
22543;SDS011;11438;52.044;8.716;2022-07-06T15:09:11;1.25;;;0.25;;